sensor_id;sensor_type;location;lat;lon;timestamp;P1;durP1;ratioP1;P2;durP2;ratioP2
22963;SDS011;11648;49.306;6.934;2024-03-02T00:00:27;2.80;;;1.13;;
22963;SDS011;11648;49.306;6.934;2024-03-02T00:02:54;2.73;;;1.10;;
22963;SDS011;11648;49.306;6.934;2024-03-02T00:05:21;2.70;;;1.20;;
22963;SDS011;11648;49.306;6.934;2024-03-02T00:07:57;2.43;;;1.10;;
22963;SDS011;11648;49.306;6.934;2024-03-02T00:10:25;2.70;;;0.97;;
22963;SDS011;11648;49.306;6.934;2024-03-02T00:12:58;3.13;;;1.03;;
22963;SDS011;11648;49.306;6.934;2024-03-02T00:18:11;2.10;;;0.93;;
22963;SDS011;11648;49.306;6.934;2024-03-02T00:20:40;2.67;;;0.83;;
22963;SDS011;11648;49.306;6.934;2024-03-02T00:23:08;5.60;;;1.00;;
22963;SDS011;11648;49.306;6.934;2024-03-02T00:28:17;2.37;;;1.13;;
22963;SDS011;11648;49.306;6.934;2024-03-02T00:33:16;2.47;;;0.90;;
22963;SDS011;11648;49.306;6.934;2024-03-02T00:35:44;2.30;;;1.00;;
22963;SDS011;11648;49.306;6.934;2024-03-02T00:38:11;4.10;;;1.10;;
22963;SDS011;11648;49.306;6.934;2024-03-02T00:40:41;2.30;;;0.90;;
22963;SDS011;11648;49.306;6.934;2024-03-02T00:45:57;4.33;;;1.10;;
22963;SDS011;11648;49.306;6.934;2024-03-02T00:48:24;3.30;;;1.07;;
22963;SDS011;11648;49.306;6.934;2024-03-02T00:50:54;3.67;;;1.00;;
22963;SDS011;11648;49.306;6.934;2024-03-02T00:53:22;3.80;;;1.10;;
22963;SDS011;11648;49.306;6.934;2024-03-02T00:55:51;2.60;;;1.20;;
22963;SDS011;11648;49.306;6.934;2024-03-02T00:58:18;2.57;;;1.40;;
22963;SDS011;11648;49.306;6.934;2024-03-02T01:00:45;1.97;;;0.90;;
22963;SDS011;11648;49.306;6.934;2024-03-02T01:03:12;2.47;;;1.07;;
22963;SDS011;11648;49.306;6.934;2024-03-02T01:05:42;2.50;;;1.10;;
22963;SDS011;11648;49.306;6.934;2024-03-02T01:08:10;3.07;;;1.00;;
22963;SDS011;11648;49.306;6.934;2024-03-02T01:10:37;3.13;;;1.07;;
22963;SDS011;11648;49.306;6.934;2024-03-02T01:13:04;4.30;;;1.30;;
22963;SDS011;11648;49.306;6.934;2024-03-02T01:15:30;3.30;;;1.37;;
22963;SDS011;11648;49.306;6.934;2024-03-02T01:17:57;3.33;;;1.20;;
22963;SDS011;11648;49.306;6.934;2024-03-02T01:20:24;1.77;;;0.87;;
22963;SDS011;11648;49.306;6.934;2024-03-02T01:22:51;3.47;;;1.03;;
22963;SDS011;11648;49.306;6.934;2024-03-02T01:25:18;2.40;;;1.13;;
22963;SDS011;11648;49.306;6.934;2024-03-02T01:27:45;2.23;;;1.10;;
22963;SDS011;11648;49.306;6.934;2024-03-02T01:30:16;2.97;;;0.80;;
22963;SDS011;11648;49.306;6.934;2024-03-02T01:32:43;2.73;;;1.10;;
22963;SDS011;11648;49.306;6.934;2024-03-02T01:35:10;2.50;;;1.00;;
22963;SDS011;11648;49.306;6.934;2024-03-02T01:37:36;3.47;;;0.97;;
22963;SDS011;11648;49.306;6.934;2024-03-02T01:40:03;2.50;;;1.07;;
22963;SDS011;11648;49.306;6.934;2024-03-02T01:42:39;1.80;;;0.80;;
22963;SDS011;11648;49.306;6.934;2024-03-02T01:45:06;3.37;;;1.07;;
22963;SDS011;11648;49.306;6.934;2024-03-02T01:47:34;2.23;;;1.00;;
22963;SDS011;11648;49.306;6.934;2024-03-02T01:50:01;2.37;;;1.13;;
22963;SDS011;11648;49.306;6.934;2024-03-02T01:52:28;2.00;;;0.83;;
22963;SDS011;11648;49.306;6.934;2024-03-02T01:54:57;5.37;;;0.93;;
22963;SDS011;11648;49.306;6.934;2024-03-02T01:57:24;1.93;;;0.77;;
22963;SDS011;11648;49.306;6.934;2024-03-02T01:59:51;2.53;;;0.87;;
22963;SDS011;11648;49.306;6.934;2024-03-02T02:02:18;2.10;;;0.77;;
22963;SDS011;11648;49.306;6.934;2024-03-02T02:04:46;2.30;;;0.93;;
22963;SDS011;11648;49.306;6.934;2024-03-02T02:07:13;4.20;;;1.00;;
22963;SDS011;11648;49.306;6.934;2024-03-02T02:09:41;4.77;;;1.10;;
22963;SDS011;11648;49.306;6.934;2024-03-02T02:12:11;2.47;;;0.90;;
22963;SDS011;11648;49.306;6.934;2024-03-02T02:14:38;2.50;;;0.80;;
22963;SDS011;11648;49.306;6.934;2024-03-02T02:17:09;2.47;;;0.90;;
22963;SDS011;11648;49.306;6.934;2024-03-02T02:19:36;2.43;;;0.93;;
22963;SDS011;11648;49.306;6.934;2024-03-02T02:22:03;2.63;;;1.00;;
22963;SDS011;11648;49.306;6.934;2024-03-02T02:24:30;2.07;;;0.93;;
22963;SDS011;11648;49.306;6.934;2024-03-02T02:26:57;1.73;;;0.70;;
22963;SDS011;11648;49.306;6.934;2024-03-02T02:29:24;2.47;;;1.07;;
22963;SDS011;11648;49.306;6.934;2024-03-02T02:31:51;2.10;;;0.80;;
22963;SDS011;11648;49.306;6.934;2024-03-02T02:34:17;2.13;;;0.80;;
22963;SDS011;11648;49.306;6.934;2024-03-02T02:36:44;2.17;;;0.80;;
22963;SDS011;11648;49.306;6.934;2024-03-02T02:39:12;3.60;;;1.30;;
22963;SDS011;11648;49.306;6.934;2024-03-02T02:41:42;2.90;;;0.93;;
22963;SDS011;11648;49.306;6.934;2024-03-02T02:44:09;2.93;;;1.07;;
22963;SDS011;11648;49.306;6.934;2024-03-02T02:46:39;1.50;;;0.70;;
22963;SDS011;11648;49.306;6.934;2024-03-02T02:49:07;3.60;;;1.07;;
22963;SDS011;11648;49.306;6.934;2024-03-02T02:51:33;2.70;;;0.90;;
22963;SDS011;11648;49.306;6.934;2024-03-02T02:54:00;2.63;;;0.70;;
22963;SDS011;11648;49.306;6.934;2024-03-02T02:56:27;2.97;;;0.83;;
22963;SDS011;11648;49.306;6.934;2024-03-02T02:58:54;4.13;;;0.90;;
22963;SDS011;11648;49.306;6.934;2024-03-02T03:01:21;1.77;;;0.80;;
22963;SDS011;11648;49.306;6.934;2024-03-02T03:03:48;2.30;;;0.80;;
22963;SDS011;11648;49.306;6.934;2024-03-02T03:06:15;1.70;;;0.83;;
22963;SDS011;11648;49.306;6.934;2024-03-02T03:08:42;2.63;;;0.90;;
22963;SDS011;11648;49.306;6.934;2024-03-02T03:11:08;2.80;;;0.83;;
22963;SDS011;11648;49.306;6.934;2024-03-02T03:13:35;2.83;;;0.90;;
22963;SDS011;11648;49.306;6.934;2024-03-02T03:16:02;2.50;;;1.00;;
22963;SDS011;11648;49.306;6.934;2024-03-02T03:18:30;2.83;;;0.93;;
22963;SDS011;11648;49.306;6.934;2024-03-02T03:20:57;2.73;;;1.00;;
22963;SDS011;11648;49.306;6.934;2024-03-02T03:23:23;2.77;;;0.80;;
22963;SDS011;11648;49.306;6.934;2024-03-02T03:25:52;1.40;;;0.70;;
22963;SDS011;11648;49.306;6.934;2024-03-02T03:28:19;2.27;;;0.80;;
22963;SDS011;11648;49.306;6.934;2024-03-02T03:30:46;3.27;;;0.90;;
22963;SDS011;11648;49.306;6.934;2024-03-02T03:33:12;2.63;;;0.80;;
22963;SDS011;11648;49.306;6.934;2024-03-02T03:35:40;2.20;;;0.80;;
22963;SDS011;11648;49.306;6.934;2024-03-02T03:38:07;2.83;;;0.90;;
22963;SDS011;11648;49.306;6.934;2024-03-02T03:40:33;2.87;;;0.73;;
22963;SDS011;11648;49.306;6.934;2024-03-02T03:43:00;2.13;;;0.90;;
22963;SDS011;11648;49.306;6.934;2024-03-02T03:45:27;2.30;;;1.07;;
22963;SDS011;11648;49.306;6.934;2024-03-02T03:47:54;2.27;;;0.73;;
22963;SDS011;11648;49.306;6.934;2024-03-02T03:50:21;3.23;;;1.00;;
22963;SDS011;11648;49.306;6.934;2024-03-02T03:52:48;3.23;;;1.00;;
22963;SDS011;11648;49.306;6.934;2024-03-02T03:55:15;2.40;;;0.80;;
22963;SDS011;11648;49.306;6.934;2024-03-02T03:57:41;2.50;;;0.80;;
22963;SDS011;11648;49.306;6.934;2024-03-02T04:00:08;1.90;;;0.80;;
22963;SDS011;11648;49.306;6.934;2024-03-02T04:02:39;2.27;;;1.00;;
22963;SDS011;11648;49.306;6.934;2024-03-02T04:05:06;2.80;;;0.80;;
22963;SDS011;11648;49.306;6.934;2024-03-02T04:07:38;1.73;;;0.70;;
22963;SDS011;11648;49.306;6.934;2024-03-02T04:10:08;2.33;;;0.73;;
22963;SDS011;11648;49.306;6.934;2024-03-02T04:12:36;1.70;;;0.70;;
22963;SDS011;11648;49.306;6.934;2024-03-02T04:15:04;1.70;;;0.57;;
22963;SDS011;11648;49.306;6.934;2024-03-02T04:17:33;2.03;;;0.80;;
22963;SDS011;11648;49.306;6.934;2024-03-02T04:20:00;2.30;;;0.87;;
22963;SDS011;11648;49.306;6.934;2024-03-02T04:22:28;2.57;;;0.50;;
22963;SDS011;11648;49.306;6.934;2024-03-02T04:24:55;4.23;;;0.90;;
22963;SDS011;11648;49.306;6.934;2024-03-02T04:27:22;1.80;;;0.70;;
22963;SDS011;11648;49.306;6.934;2024-03-02T04:29:49;1.90;;;0.80;;
22963;SDS011;11648;49.306;6.934;2024-03-02T04:32:16;2.30;;;0.77;;
22963;SDS011;11648;49.306;6.934;2024-03-02T04:34:43;2.77;;;0.90;;
22963;SDS011;11648;49.306;6.934;2024-03-02T04:37:10;2.83;;;0.90;;
22963;SDS011;11648;49.306;6.934;2024-03-02T04:39:39;2.90;;;0.80;;
22963;SDS011;11648;49.306;6.934;2024-03-02T04:42:06;1.80;;;0.70;;
22963;SDS011;11648;49.306;6.934;2024-03-02T04:44:33;2.93;;;1.00;;
22963;SDS011;11648;49.306;6.934;2024-03-02T04:47:04;1.30;;;0.70;;
22963;SDS011;11648;49.306;6.934;2024-03-02T04:49:31;2.03;;;0.90;;
22963;SDS011;11648;49.306;6.934;2024-03-02T04:51:58;2.53;;;0.80;;
22963;SDS011;11648;49.306;6.934;2024-03-02T04:54:25;2.00;;;0.83;;
22963;SDS011;11648;49.306;6.934;2024-03-02T04:56:52;2.60;;;0.90;;
22963;SDS011;11648;49.306;6.934;2024-03-02T04:59:20;1.87;;;0.77;;
22963;SDS011;11648;49.306;6.934;2024-03-02T05:01:46;1.83;;;0.77;;
22963;SDS011;11648;49.306;6.934;2024-03-02T05:04:14;1.60;;;0.60;;
22963;SDS011;11648;49.306;6.934;2024-03-02T05:06:41;1.30;;;0.60;;
22963;SDS011;11648;49.306;6.934;2024-03-02T05:09:08;2.63;;;0.90;;
22963;SDS011;11648;49.306;6.934;2024-03-02T05:11:35;2.03;;;0.80;;
22963;SDS011;11648;49.306;6.934;2024-03-02T05:14:05;2.17;;;0.80;;
22963;SDS011;11648;49.306;6.934;2024-03-02T05:16:33;5.23;;;0.80;;
22963;SDS011;11648;49.306;6.934;2024-03-02T05:19:07;2.20;;;0.73;;
22963;SDS011;11648;49.306;6.934;2024-03-02T05:21:34;2.90;;;0.90;;
22963;SDS011;11648;49.306;6.934;2024-03-02T05:24:01;1.67;;;0.73;;
22963;SDS011;11648;49.306;6.934;2024-03-02T05:26:28;3.80;;;0.90;;
22963;SDS011;11648;49.306;6.934;2024-03-02T05:28:55;2.37;;;0.90;;
22963;SDS011;11648;49.306;6.934;2024-03-02T05:31:22;4.03;;;0.90;;
22963;SDS011;11648;49.306;6.934;2024-03-02T05:33:49;5.30;;;1.00;;
22963;SDS011;11648;49.306;6.934;2024-03-02T05:36:21;2.00;;;0.83;;
22963;SDS011;11648;49.306;6.934;2024-03-02T05:38:48;2.10;;;0.90;;
22963;SDS011;11648;49.306;6.934;2024-03-02T05:41:15;3.63;;;0.90;;
22963;SDS011;11648;49.306;6.934;2024-03-02T05:43:41;3.13;;;1.00;;
22963;SDS011;11648;49.306;6.934;2024-03-02T05:46:08;2.87;;;0.83;;
22963;SDS011;11648;49.306;6.934;2024-03-02T05:48:35;3.50;;;0.90;;
22963;SDS011;11648;49.306;6.934;2024-03-02T05:51:02;2.10;;;0.80;;
22963;SDS011;11648;49.306;6.934;2024-03-02T05:53:29;2.63;;;0.90;;
22963;SDS011;11648;49.306;6.934;2024-03-02T05:55:56;2.40;;;0.83;;
22963;SDS011;11648;49.306;6.934;2024-03-02T05:58:23;3.30;;;1.00;;
22963;SDS011;11648;49.306;6.934;2024-03-02T06:01:12;3.20;;;0.90;;
22963;SDS011;11648;49.306;6.934;2024-03-02T06:03:42;4.00;;;1.20;;
22963;SDS011;11648;49.306;6.934;2024-03-02T06:06:09;3.37;;;1.27;;
22963;SDS011;11648;49.306;6.934;2024-03-02T06:08:36;3.43;;;1.20;;
22963;SDS011;11648;49.306;6.934;2024-03-02T06:11:03;4.37;;;1.07;;
22963;SDS011;11648;49.306;6.934;2024-03-02T06:13:30;2.97;;;0.83;;
22963;SDS011;11648;49.306;6.934;2024-03-02T06:15:57;2.63;;;0.73;;
22963;SDS011;11648;49.306;6.934;2024-03-02T06:18:24;3.80;;;1.00;;
22963;SDS011;11648;49.306;6.934;2024-03-02T06:20:51;2.87;;;0.90;;
22963;SDS011;11648;49.306;6.934;2024-03-02T06:23:18;3.27;;;0.90;;
22963;SDS011;11648;49.306;6.934;2024-03-02T06:25:45;2.30;;;1.03;;
22963;SDS011;11648;49.306;6.934;2024-03-02T06:28:12;1.97;;;1.00;;
22963;SDS011;11648;49.306;6.934;2024-03-02T06:30:41;3.40;;;1.17;;
22963;SDS011;11648;49.306;6.934;2024-03-02T06:33:09;2.33;;;1.00;;
22963;SDS011;11648;49.306;6.934;2024-03-02T06:35:36;2.63;;;0.90;;
22963;SDS011;11648;49.306;6.934;2024-03-02T06:38:03;2.47;;;0.90;;
22963;SDS011;11648;49.306;6.934;2024-03-02T06:40:30;2.20;;;0.87;;
22963;SDS011;11648;49.306;6.934;2024-03-02T06:42:57;2.57;;;0.97;;
22963;SDS011;11648;49.306;6.934;2024-03-02T06:45:24;3.33;;;1.00;;
22963;SDS011;11648;49.306;6.934;2024-03-02T06:47:51;3.77;;;1.30;;
22963;SDS011;11648;49.306;6.934;2024-03-02T06:50:18;2.20;;;0.90;;
22963;SDS011;11648;49.306;6.934;2024-03-02T06:52:44;3.00;;;1.03;;
22963;SDS011;11648;49.306;6.934;2024-03-02T06:55:11;3.23;;;1.27;;
22963;SDS011;11648;49.306;6.934;2024-03-02T06:57:38;2.70;;;1.20;;
22963;SDS011;11648;49.306;6.934;2024-03-02T07:00:06;2.03;;;0.97;;
22963;SDS011;11648;49.306;6.934;2024-03-02T07:02:35;3.03;;;0.97;;
22963;SDS011;11648;49.306;6.934;2024-03-02T07:05:02;4.13;;;1.23;;
22963;SDS011;11648;49.306;6.934;2024-03-02T07:07:30;3.20;;;1.00;;
22963;SDS011;11648;49.306;6.934;2024-03-02T07:09:58;1.90;;;0.90;;
22963;SDS011;11648;49.306;6.934;2024-03-02T07:12:25;2.83;;;1.27;;
22963;SDS011;11648;49.306;6.934;2024-03-02T07:14:52;3.13;;;1.10;;
22963;SDS011;11648;49.306;6.934;2024-03-02T07:17:31;2.90;;;1.17;;
22963;SDS011;11648;49.306;6.934;2024-03-02T07:19:58;3.73;;;1.00;;
22963;SDS011;11648;49.306;6.934;2024-03-02T07:22:25;3.47;;;1.20;;
22963;SDS011;11648;49.306;6.934;2024-03-02T07:24:52;2.40;;;1.27;;
22963;SDS011;11648;49.306;6.934;2024-03-02T07:27:19;3.37;;;1.30;;
22963;SDS011;11648;49.306;6.934;2024-03-02T07:29:46;4.60;;;1.60;;
22963;SDS011;11648;49.306;6.934;2024-03-02T07:32:13;4.70;;;1.53;;
22963;SDS011;11648;49.306;6.934;2024-03-02T07:34:40;3.77;;;1.60;;
22963;SDS011;11648;49.306;6.934;2024-03-02T07:37:06;3.40;;;1.67;;
22963;SDS011;11648;49.306;6.934;2024-03-02T07:39:33;3.27;;;1.60;;
22963;SDS011;11648;49.306;6.934;2024-03-02T07:42:00;4.50;;;1.73;;
22963;SDS011;11648;49.306;6.934;2024-03-02T07:44:27;3.17;;;1.67;;
22963;SDS011;11648;49.306;6.934;2024-03-02T07:46:54;3.47;;;1.60;;
22963;SDS011;11648;49.306;6.934;2024-03-02T07:49:21;3.57;;;1.50;;
22963;SDS011;11648;49.306;6.934;2024-03-02T07:51:48;3.13;;;1.60;;
22963;SDS011;11648;49.306;6.934;2024-03-02T07:54:16;4.03;;;1.40;;
22963;SDS011;11648;49.306;6.934;2024-03-02T07:56:43;4.63;;;1.40;;
22963;SDS011;11648;49.306;6.934;2024-03-02T07:59:11;3.07;;;1.17;;
22963;SDS011;11648;49.306;6.934;2024-03-02T08:01:38;2.10;;;1.10;;
22963;SDS011;11648;49.306;6.934;2024-03-02T08:04:05;2.50;;;1.20;;
22963;SDS011;11648;49.306;6.934;2024-03-02T08:06:33;3.57;;;1.70;;
22963;SDS011;11648;49.306;6.934;2024-03-02T08:09:00;3.23;;;1.70;;
22963;SDS011;11648;49.306;6.934;2024-03-02T08:11:27;3.03;;;1.40;;
22963;SDS011;11648;49.306;6.934;2024-03-02T08:13:55;2.23;;;1.30;;
22963;SDS011;11648;49.306;6.934;2024-03-02T08:16:22;2.77;;;1.20;;
22963;SDS011;11648;49.306;6.934;2024-03-02T08:18:50;3.33;;;1.20;;
22963;SDS011;11648;49.306;6.934;2024-03-02T08:21:17;2.60;;;1.30;;
22963;SDS011;11648;49.306;6.934;2024-03-02T08:23:44;2.70;;;1.37;;
22963;SDS011;11648;49.306;6.934;2024-03-02T08:26:11;2.63;;;1.10;;
22963;SDS011;11648;49.306;6.934;2024-03-02T08:28:39;2.17;;;1.10;;
22963;SDS011;11648;49.306;6.934;2024-03-02T08:31:07;2.87;;;1.20;;
22963;SDS011;11648;49.306;6.934;2024-03-02T08:33:34;2.40;;;1.10;;
22963;SDS011;11648;49.306;6.934;2024-03-02T08:36:04;3.70;;;1.30;;
22963;SDS011;11648;49.306;6.934;2024-03-02T08:38:31;3.33;;;1.40;;
22963;SDS011;11648;49.306;6.934;2024-03-02T08:40:59;2.77;;;1.20;;
22963;SDS011;11648;49.306;6.934;2024-03-02T08:43:25;3.13;;;1.30;;
22963;SDS011;11648;49.306;6.934;2024-03-02T08:45:52;3.27;;;1.27;;
22963;SDS011;11648;49.306;6.934;2024-03-02T08:48:19;2.63;;;1.30;;
22963;SDS011;11648;49.306;6.934;2024-03-02T08:50:47;3.47;;;1.13;;
22963;SDS011;11648;49.306;6.934;2024-03-02T08:53:14;2.60;;;1.20;;
22963;SDS011;11648;49.306;6.934;2024-03-02T08:55:45;3.87;;;1.20;;
22963;SDS011;11648;49.306;6.934;2024-03-02T08:58:13;3.30;;;1.20;;
22963;SDS011;11648;49.306;6.934;2024-03-02T09:00:40;2.37;;;1.10;;
22963;SDS011;11648;49.306;6.934;2024-03-02T09:03:07;2.67;;;1.20;;
22963;SDS011;11648;49.306;6.934;2024-03-02T09:05:34;2.23;;;0.90;;
22963;SDS011;11648;49.306;6.934;2024-03-02T09:08:01;2.13;;;0.90;;
22963;SDS011;11648;49.306;6.934;2024-03-02T09:10:30;1.90;;;0.90;;
22963;SDS011;11648;49.306;6.934;2024-03-02T09:12:57;3.60;;;1.10;;
22963;SDS011;11648;49.306;6.934;2024-03-02T09:15:24;2.57;;;1.10;;
22963;SDS011;11648;49.306;6.934;2024-03-02T09:17:51;3.47;;;1.00;;
22963;SDS011;11648;49.306;6.934;2024-03-02T09:20:18;3.30;;;1.13;;
22963;SDS011;11648;49.306;6.934;2024-03-02T09:22:45;3.17;;;1.00;;
22963;SDS011;11648;49.306;6.934;2024-03-02T09:25:14;2.40;;;1.03;;
22963;SDS011;11648;49.306;6.934;2024-03-02T09:27:42;3.37;;;1.17;;
22963;SDS011;11648;49.306;6.934;2024-03-02T09:30:09;2.50;;;1.10;;
22963;SDS011;11648;49.306;6.934;2024-03-02T09:32:37;2.47;;;1.17;;
22963;SDS011;11648;49.306;6.934;2024-03-02T09:35:04;2.27;;;1.07;;
22963;SDS011;11648;49.306;6.934;2024-03-02T09:37:31;2.30;;;1.10;;
22963;SDS011;11648;49.306;6.934;2024-03-02T09:39:58;1.90;;;0.90;;
22963;SDS011;11648;49.306;6.934;2024-03-02T09:42:26;2.42;;;0.90;;
22963;SDS011;11648;49.306;6.934;2024-03-02T09:44:53;2.13;;;0.95;;
22963;SDS011;11648;49.306;6.934;2024-03-02T09:47:20;2.60;;;0.90;;
22963;SDS011;11648;49.306;6.934;2024-03-02T09:49:47;1.65;;;0.73;;
22963;SDS011;11648;49.306;6.934;2024-03-02T09:52:15;2.58;;;1.10;;
22963;SDS011;11648;49.306;6.934;2024-03-02T09:54:42;1.83;;;0.90;;
22963;SDS011;11648;49.306;6.934;2024-03-02T09:57:09;1.83;;;0.82;;
22963;SDS011;11648;49.306;6.934;2024-03-02T09:59:36;2.67;;;1.05;;
22963;SDS011;11648;49.306;6.934;2024-03-02T10:02:03;1.98;;;0.80;;
22963;SDS011;11648;49.306;6.934;2024-03-02T10:04:33;1.55;;;0.80;;
22963;SDS011;11648;49.306;6.934;2024-03-02T10:07:13;1.77;;;0.70;;
22963;SDS011;11648;49.306;6.934;2024-03-02T10:09:42;1.85;;;1.02;;
22963;SDS011;11648;49.306;6.934;2024-03-02T10:12:11;2.75;;;0.90;;
22963;SDS011;11648;49.306;6.934;2024-03-02T10:14:39;1.13;;;0.70;;
22963;SDS011;11648;49.306;6.934;2024-03-02T10:17:09;1.88;;;0.70;;
22963;SDS011;11648;49.306;6.934;2024-03-02T10:19:37;1.25;;;0.70;;
22963;SDS011;11648;49.306;6.934;2024-03-02T10:22:07;1.80;;;0.82;;
22963;SDS011;11648;49.306;6.934;2024-03-02T10:24:44;2.08;;;0.75;;
22963;SDS011;11648;49.306;6.934;2024-03-02T10:27:16;3.67;;;0.80;;
22963;SDS011;11648;49.306;6.934;2024-03-02T10:29:45;2.05;;;0.93;;
22963;SDS011;11648;49.306;6.934;2024-03-02T10:32:13;2.20;;;0.90;;
22963;SDS011;11648;49.306;6.934;2024-03-02T10:34:42;1.38;;;0.80;;
22963;SDS011;11648;49.306;6.934;2024-03-02T10:37:12;1.90;;;0.80;;
22963;SDS011;11648;49.306;6.934;2024-03-02T10:39:40;1.75;;;0.90;;
22963;SDS011;11648;49.306;6.934;2024-03-02T10:42:08;2.75;;;0.85;;
22963;SDS011;11648;49.306;6.934;2024-03-02T10:44:35;1.92;;;0.80;;
22963;SDS011;11648;49.306;6.934;2024-03-02T10:47:05;1.75;;;0.60;;
22963;SDS011;11648;49.306;6.934;2024-03-02T10:49:32;1.85;;;0.60;;
22963;SDS011;11648;49.306;6.934;2024-03-02T10:52:00;2.00;;;0.88;;
22963;SDS011;11648;49.306;6.934;2024-03-02T10:54:28;1.55;;;0.80;;
22963;SDS011;11648;49.306;6.934;2024-03-02T10:57:04;1.63;;;0.55;;
22963;SDS011;11648;49.306;6.934;2024-03-02T11:02:03;2.08;;;0.60;;
22963;SDS011;11648;49.306;6.934;2024-03-02T11:04:32;1.08;;;0.50;;
22963;SDS011;11648;49.306;6.934;2024-03-02T11:07:08;1.52;;;0.70;;
22963;SDS011;11648;49.306;6.934;2024-03-02T11:09:38;2.50;;;0.60;;
22963;SDS011;11648;49.306;6.934;2024-03-02T11:14:55;1.92;;;0.70;;
22963;SDS011;11648;49.306;6.934;2024-03-02T11:17:22;2.20;;;0.73;;
22963;SDS011;11648;49.306;6.934;2024-03-02T11:19:51;1.35;;;0.60;;
22963;SDS011;11648;49.306;6.934;2024-03-02T11:22:19;1.42;;;0.60;;
22963;SDS011;11648;49.306;6.934;2024-03-02T11:24:47;1.88;;;0.65;;
22963;SDS011;11648;49.306;6.934;2024-03-02T11:27:20;1.33;;;0.50;;
22963;SDS011;11648;49.306;6.934;2024-03-02T11:31:01;3.75;;;0.60;;
22963;SDS011;11648;49.306;6.934;2024-03-02T11:33:07;1.27;;;0.60;;
22963;SDS011;11648;49.306;6.934;2024-03-02T11:35:37;1.23;;;0.65;;
22963;SDS011;11648;49.306;6.934;2024-03-02T11:38:07;1.25;;;0.60;;
22963;SDS011;11648;49.306;6.934;2024-03-02T11:40:35;2.15;;;0.55;;
22963;SDS011;11648;49.306;6.934;2024-03-02T11:43:02;1.65;;;0.60;;
22963;SDS011;11648;49.306;6.934;2024-03-02T11:45:31;1.35;;;0.57;;
22963;SDS011;11648;49.306;6.934;2024-03-02T11:48:00;1.92;;;0.60;;
22963;SDS011;11648;49.306;6.934;2024-03-02T11:50:30;1.77;;;0.60;;
22963;SDS011;11648;49.306;6.934;2024-03-02T11:53:02;1.70;;;0.65;;
22963;SDS011;11648;49.306;6.934;2024-03-02T11:55:32;2.27;;;0.60;;
22963;SDS011;11648;49.306;6.934;2024-03-02T11:58:05;1.47;;;0.60;;
22963;SDS011;11648;49.306;6.934;2024-03-02T12:00:32;1.50;;;0.50;;
22963;SDS011;11648;49.306;6.934;2024-03-02T12:03:00;1.17;;;0.57;;
22963;SDS011;11648;49.306;6.934;2024-03-02T12:05:30;1.20;;;0.70;;
22963;SDS011;11648;49.306;6.934;2024-03-02T12:07:58;1.27;;;0.67;;
22963;SDS011;11648;49.306;6.934;2024-03-02T12:10:26;1.90;;;0.60;;
22963;SDS011;11648;49.306;6.934;2024-03-02T12:13:00;1.20;;;0.50;;
22963;SDS011;11648;49.306;6.934;2024-03-02T12:15:29;1.37;;;0.60;;
22963;SDS011;11648;49.306;6.934;2024-03-02T12:17:59;1.20;;;0.60;;
22963;SDS011;11648;49.306;6.934;2024-03-02T12:20:28;2.00;;;0.60;;
22963;SDS011;11648;49.306;6.934;2024-03-02T12:22:58;0.93;;;0.50;;
22963;SDS011;11648;49.306;6.934;2024-03-02T12:25:26;2.50;;;0.60;;
22963;SDS011;11648;49.306;6.934;2024-03-02T12:27:55;1.03;;;0.50;;
22963;SDS011;11648;49.306;6.934;2024-03-02T12:30:23;1.07;;;0.60;;
22963;SDS011;11648;49.306;6.934;2024-03-02T12:32:50;1.40;;;0.50;;
22963;SDS011;11648;49.306;6.934;2024-03-02T12:35:17;1.40;;;0.50;;
22963;SDS011;11648;49.306;6.934;2024-03-02T12:37:46;2.00;;;0.67;;
22963;SDS011;11648;49.306;6.934;2024-03-02T12:40:15;1.93;;;0.60;;
22963;SDS011;11648;49.306;6.934;2024-03-02T12:42:45;1.20;;;0.50;;
22963;SDS011;11648;49.306;6.934;2024-03-02T12:45:13;1.33;;;0.57;;
22963;SDS011;11648;49.306;6.934;2024-03-02T12:47:41;1.43;;;0.60;;
22963;SDS011;11648;49.306;6.934;2024-03-02T12:50:09;1.33;;;0.50;;
22963;SDS011;11648;49.306;6.934;2024-03-02T12:52:36;1.63;;;0.60;;
22963;SDS011;11648;49.306;6.934;2024-03-02T12:55:06;1.80;;;0.70;;
22963;SDS011;11648;49.306;6.934;2024-03-02T12:57:34;2.07;;;0.53;;
22963;SDS011;11648;49.306;6.934;2024-03-02T13:00:02;1.10;;;0.60;;
22963;SDS011;11648;49.306;6.934;2024-03-02T13:02:36;2.03;;;0.80;;
22963;SDS011;11648;49.306;6.934;2024-03-02T13:05:06;2.03;;;0.80;;
22963;SDS011;11648;49.306;6.934;2024-03-02T13:07:37;1.60;;;0.60;;
22963;SDS011;11648;49.306;6.934;2024-03-02T13:10:05;2.53;;;0.67;;
22963;SDS011;11648;49.306;6.934;2024-03-02T13:12:34;2.07;;;0.80;;
22963;SDS011;11648;49.306;6.934;2024-03-02T13:15:02;2.03;;;0.80;;
22963;SDS011;11648;49.306;6.934;2024-03-02T13:17:30;1.10;;;0.63;;
22963;SDS011;11648;49.306;6.934;2024-03-02T13:20:04;1.80;;;0.80;;
22963;SDS011;11648;49.306;6.934;2024-03-02T13:22:35;1.10;;;0.60;;
22963;SDS011;11648;49.306;6.934;2024-03-02T13:25:02;1.70;;;0.70;;
22963;SDS011;11648;49.306;6.934;2024-03-02T13:27:31;1.43;;;0.80;;
22963;SDS011;11648;49.306;6.934;2024-03-02T13:29:59;3.13;;;1.50;;
22963;SDS011;11648;49.306;6.934;2024-03-02T13:32:26;1.73;;;0.80;;
22963;SDS011;11648;49.306;6.934;2024-03-02T13:34:53;1.87;;;0.83;;
22963;SDS011;11648;49.306;6.934;2024-03-02T13:37:20;2.40;;;0.90;;
22963;SDS011;11648;49.306;6.934;2024-03-02T13:39:48;3.67;;;0.90;;
22963;SDS011;11648;49.306;6.934;2024-03-02T13:42:15;2.70;;;0.80;;
22963;SDS011;11648;49.306;6.934;2024-03-02T13:44:43;1.50;;;0.77;;
22963;SDS011;11648;49.306;6.934;2024-03-02T13:47:14;1.67;;;0.90;;
22963;SDS011;11648;49.306;6.934;2024-03-02T13:49:41;1.63;;;0.87;;
22963;SDS011;11648;49.306;6.934;2024-03-02T13:52:14;2.03;;;0.97;;
22963;SDS011;11648;49.306;6.934;2024-03-02T13:54:42;1.40;;;0.80;;
22963;SDS011;11648;49.306;6.934;2024-03-02T13:57:10;1.43;;;0.87;;
22963;SDS011;11648;49.306;6.934;2024-03-02T13:59:38;2.73;;;1.20;;
22963;SDS011;11648;49.306;6.934;2024-03-02T14:02:06;2.80;;;1.10;;
22963;SDS011;11648;49.306;6.934;2024-03-02T14:04:34;3.00;;;1.57;;
22963;SDS011;11648;49.306;6.934;2024-03-02T14:07:02;2.73;;;1.30;;
22963;SDS011;11648;49.306;6.934;2024-03-02T14:09:29;2.30;;;1.27;;
22963;SDS011;11648;49.306;6.934;2024-03-02T14:11:56;2.60;;;1.20;;
22963;SDS011;11648;49.306;6.934;2024-03-02T14:14:23;2.63;;;1.50;;
22963;SDS011;11648;49.306;6.934;2024-03-02T14:16:52;1.90;;;0.83;;
22963;SDS011;11648;49.306;6.934;2024-03-02T14:19:19;1.67;;;0.70;;
22963;SDS011;11648;49.306;6.934;2024-03-02T14:21:47;1.57;;;0.80;;
22963;SDS011;11648;49.306;6.934;2024-03-02T14:24:14;2.10;;;1.00;;
22963;SDS011;11648;49.306;6.934;2024-03-02T14:26:41;2.33;;;0.70;;
22963;SDS011;11648;49.306;6.934;2024-03-02T14:29:10;1.73;;;0.80;;
22963;SDS011;11648;49.306;6.934;2024-03-02T14:31:38;1.43;;;0.70;;
22963;SDS011;11648;49.306;6.934;2024-03-02T14:34:04;2.40;;;1.00;;
22963;SDS011;11648;49.306;6.934;2024-03-02T14:36:31;1.90;;;0.87;;
22963;SDS011;11648;49.306;6.934;2024-03-02T14:38:58;1.70;;;0.87;;
22963;SDS011;11648;49.306;6.934;2024-03-02T14:41:25;1.43;;;0.80;;
22963;SDS011;11648;49.306;6.934;2024-03-02T14:43:52;1.33;;;0.73;;
22963;SDS011;11648;49.306;6.934;2024-03-02T14:46:19;1.73;;;0.80;;
22963;SDS011;11648;49.306;6.934;2024-03-02T14:48:46;3.23;;;1.00;;
22963;SDS011;11648;49.306;6.934;2024-03-02T14:51:13;2.43;;;0.90;;
22963;SDS011;11648;49.306;6.934;2024-03-02T14:53:41;1.80;;;0.97;;
22963;SDS011;11648;49.306;6.934;2024-03-02T14:56:08;2.93;;;1.13;;
22963;SDS011;11648;49.306;6.934;2024-03-02T14:58:35;2.07;;;1.10;;
22963;SDS011;11648;49.306;6.934;2024-03-02T15:01:03;1.97;;;0.90;;
22963;SDS011;11648;49.306;6.934;2024-03-02T15:03:32;2.30;;;1.00;;
22963;SDS011;11648;49.306;6.934;2024-03-02T15:06:00;1.87;;;0.80;;
22963;SDS011;11648;49.306;6.934;2024-03-02T15:08:27;2.10;;;0.80;;